createdAt,value
2019-03-18T00:00:54.701Z,100034.66
2019-03-18T00:03:26.122Z,100036.13
2019-03-18T00:05:58.598Z,100044.14
2019-03-18T00:08:29.419Z,100045.20
2019-03-18T00:11:00.717Z,100049.31
2019-03-18T00:13:31.344Z,100055.47
2019-03-18T00:16:02.008Z,100057.80
2019-03-18T00:18:33.019Z,100053.50
2019-03-18T00:21:03.564Z,100044.28
2019-03-18T00:23:34.181Z,100056.34
2019-03-18T00:26:05.008Z,100064.08
2019-03-18T00:28:35.832Z,100067.73
2019-03-18T00:31:06.883Z,100070.49
2019-03-18T00:33:37.746Z,100067.13
2019-03-18T00:36:08.581Z,100065.91
2019-03-18T00:38:39.173Z,100068.23
2019-03-18T00:41:09.782Z,100074.91
2019-03-18T00:43:40.395Z,100076.70
2019-03-18T00:46:11.058Z,100091.28
2019-03-18T00:48:41.702Z,100084.33
2019-03-18T00:51:14.938Z,100088.36
2019-03-18T00:53:45.427Z,100094.97
2019-03-18T00:56:15.911Z,100094.27
2019-03-18T00:58:46.323Z,100100.19
2019-03-18T01:01:17.413Z,100102.97
2019-03-18T01:03:48.462Z,100090.64
2019-03-18T01:06:19.093Z,100090.39
2019-03-18T01:08:49.780Z,100098.95
2019-03-18T01:11:20.594Z,100107.70
2019-03-18T01:13:51.078Z,100096.05
2019-03-18T01:16:22.085Z,100092.02
2019-03-18T01:18:52.514Z,100093.41
2019-03-18T01:21:23.382Z,100107.06
2019-03-18T01:23:53.718Z,100107.45
2019-03-18T01:26:24.583Z,100089.48
2019-03-18T01:28:54.985Z,100093.07
2019-03-18T01:31:25.334Z,100088.16
2019-03-18T01:33:55.984Z,100088.63
2019-03-18T01:36:26.865Z,100096.25
2019-03-18T01:38:57.839Z,100089.62
2019-03-18T01:41:28.888Z,100092.80
2019-03-18T01:44:00.552Z,100101.27
2019-03-18T01:46:31.223Z,100100.00
2019-03-18T01:49:01.548Z,100105.37
2019-03-18T01:51:31.969Z,100099.56
2019-03-18T01:54:02.681Z,100098.39
2019-03-18T01:56:33.865Z,100099.00
2019-03-18T01:59:04.318Z,100098.11
2019-03-18T02:01:35.340Z,100103.97
2019-03-18T02:04:06.697Z,100110.30
2019-03-18T02:06:37.114Z,100101.48
2019-03-18T02:09:07.534Z,100102.94
2019-03-18T02:11:37.861Z,100108.28
2019-03-18T02:14:08.474Z,100111.06
2019-03-18T02:16:38.866Z,100115.14
2019-03-18T02:19:09.505Z,100119.20
2019-03-18T02:21:39.918Z,100125.40
2019-03-18T02:24:10.850Z,100130.64
2019-03-18T02:26:41.348Z,100128.52
2019-03-18T02:29:11.715Z,100129.03
2019-03-18T02:31:42.120Z,100139.20
2019-03-18T02:34:13.283Z,100143.78
2019-03-18T02:36:43.981Z,100141.19
2019-03-18T02:39:14.765Z,100137.68
2019-03-18T02:41:45.482Z,100134.61
2019-03-18T02:44:16.232Z,100128.41
2019-03-18T02:46:46.947Z,100126.10
2019-03-18T02:49:17.959Z,100128.85
2019-03-18T02:51:52.654Z,100133.77
2019-03-18T02:54:20.764Z,100136.22
2019-03-18T02:56:51.298Z,100130.07
2019-03-18T02:59:21.616Z,100138.02
2019-03-18T03:01:53.058Z,100135.03
2019-03-18T03:04:23.382Z,100139.98
2019-03-18T03:06:53.774Z,100140.69
2019-03-18T03:09:24.860Z,100152.23
2019-03-18T03:11:55.260Z,100150.62
2019-03-18T03:14:25.645Z,100136.48
2019-03-18T03:16:56.188Z,100146.21
2019-03-18T03:19:27.679Z,100158.92
2019-03-18T03:21:58.207Z,100149.25
2019-03-18T03:24:28.844Z,100158.64
2019-03-18T03:26:59.451Z,100167.14
2019-03-18T03:29:30.013Z,100172.91
2019-03-18T03:32:00.649Z,100170.30
2019-03-18T03:34:31.314Z,100186.60
2019-03-18T03:37:01.936Z,100181.70
2019-03-18T03:39:32.551Z,100187.84
2019-03-18T03:42:03.608Z,100192.28
2019-03-18T03:44:34.414Z,100197.86
2019-03-18T03:47:05.031Z,100193.09
2019-03-18T03:49:35.595Z,100183.70
2019-03-18T03:52:06.414Z,100188.27
2019-03-18T03:54:36.962Z,100183.02
2019-03-18T03:57:07.885Z,100185.66
2019-03-18T03:59:38.522Z,100203.04
2019-03-18T04:02:09.105Z,100209.23
2019-03-18T04:04:39.889Z,100210.34
2019-03-18T04:07:10.478Z,100212.91
2019-03-18T04:09:42.507Z,100216.48
2019-03-18T04:12:13.336Z,100218.74
2019-03-18T04:14:43.820Z,100223.23
2019-03-18T04:17:14.330Z,100224.98
2019-03-18T04:19:44.722Z,100221.99
2019-03-18T04:22:15.149Z,100217.27
2019-03-18T04:24:46.051Z,100228.09
2019-03-18T04:27:17.491Z,100217.72
2019-03-18T04:29:48.002Z,100227.06
2019-03-18T04:32:18.862Z,100234.48
2019-03-18T04:34:49.352Z,100241.95
2019-03-18T04:37:19.842Z,100241.06
2019-03-18T04:39:50.308Z,100244.98
2019-03-18T04:42:21.673Z,100249.46
2019-03-18T04:44:52.103Z,100250.56
2019-03-18T04:47:23.821Z,100253.49
2019-03-18T04:49:54.618Z,100261.89
2019-03-18T04:52:25.389Z,100259.84
2019-03-18T04:54:55.962Z,100261.93
2019-03-18T04:57:27.747Z,100258.94
2019-03-18T05:00:00.878Z,100253.73
2019-03-18T05:02:31.337Z,100248.48
2019-03-18T05:05:02.175Z,100250.58
2019-03-18T05:07:32.928Z,100248.05
2019-03-18T05:10:04.668Z,100250.74
2019-03-18T05:12:35.025Z,100252.72
2019-03-18T05:15:07.956Z,100251.91
2019-03-18T05:17:38.277Z,100253.19
2019-03-18T05:20:10.138Z,100254.97
2019-03-18T05:22:40.702Z,100258.78
2019-03-18T05:25:11.090Z,100260.33
2019-03-18T05:27:41.695Z,100247.48
2019-03-18T05:30:14.147Z,100257.91
2019-03-18T05:32:44.490Z,100261.52
2019-03-18T05:35:16.124Z,100266.95
2019-03-18T05:37:46.490Z,100269.09
2019-03-18T05:40:16.809Z,100270.17
2019-03-18T05:42:47.229Z,100275.63
2019-03-18T05:45:18.176Z,100275.98
2019-03-18T05:47:48.839Z,100283.83
2019-03-18T05:50:19.333Z,100281.06
2019-03-18T05:52:50.019Z,100293.31
2019-03-18T05:55:22.201Z,100295.58
2019-03-18T05:57:52.844Z,100300.95
2019-03-18T06:00:23.727Z,100295.48
2019-03-18T06:02:54.096Z,100304.70
2019-03-18T06:05:24.456Z,100295.16
2019-03-18T06:07:55.518Z,100295.83
2019-03-18T06:10:25.989Z,100310.55
2019-03-18T06:12:56.460Z,100315.03
2019-03-18T06:15:26.886Z,100318.66
2019-03-18T06:17:57.406Z,100324.58
2019-03-18T06:20:28.175Z,100313.17
2019-03-18T06:23:01.598Z,100315.45
2019-03-18T06:25:32.401Z,100316.66
2019-03-18T06:28:03.113Z,100328.81
2019-03-18T06:30:34.549Z,100326.83
2019-03-18T06:33:05.377Z,100319.44
2019-03-18T06:35:35.972Z,100324.22
2019-03-18T06:38:06.391Z,100325.64
2019-03-18T06:40:37.098Z,100326.77
2019-03-18T06:43:07.696Z,100330.70
2019-03-18T06:45:38.480Z,100334.34
2019-03-18T06:48:09.388Z,100333.02
2019-03-18T06:50:40.089Z,100328.13
2019-03-18T06:53:10.888Z,100331.04
2019-03-18T06:55:43.056Z,100314.41
2019-03-18T06:58:14.274Z,100314.58
2019-03-18T07:00:44.946Z,100332.88
2019-03-18T07:03:15.647Z,100331.02
2019-03-18T07:05:46.405Z,100323.32
2019-03-18T07:08:17.017Z,100333.62
2019-03-18T07:10:47.951Z,100360.91
2019-03-18T07:13:18.884Z,100361.61
2019-03-18T07:15:50.107Z,100350.73
2019-03-18T07:18:24.259Z,100350.24
2019-03-18T07:20:55.234Z,100321.15
2019-03-18T07:23:26.282Z,100348.95
2019-03-18T07:25:57.259Z,100357.15
2019-03-18T07:28:28.339Z,100360.57
2019-03-18T07:30:58.968Z,100350.58
2019-03-18T07:33:30.356Z,100358.29
2019-03-18T07:36:00.833Z,100364.85
2019-03-18T07:38:31.322Z,100357.66
2019-03-18T07:41:02.329Z,100368.84
2019-03-18T07:43:33.358Z,100370.62
2019-03-18T07:46:03.790Z,100388.61
2019-03-18T07:48:34.286Z,100385.84
2019-03-18T07:51:05.269Z,100395.36
2019-03-18T07:53:35.675Z,100396.76
2019-03-18T07:56:06.338Z,100391.55
2019-03-18T07:58:37.414Z,100397.35
2019-03-18T08:01:07.975Z,100400.75
2019-03-18T08:03:38.390Z,100388.70
2019-03-18T08:06:09.875Z,100396.05
2019-03-18T08:08:41.464Z,100353.14
2019-03-18T08:11:12.101Z,100388.28
2019-03-18T08:13:42.610Z,100386.66
2019-03-18T08:16:13.170Z,100402.66
2019-03-18T08:18:44.347Z,100377.52
2019-03-18T08:21:14.699Z,100395.44
2019-03-18T08:23:45.470Z,100418.95
2019-03-18T08:26:16.360Z,100414.80
2019-03-18T08:28:47.115Z,100393.98
2019-03-18T08:31:17.843Z,100411.70
2019-03-18T08:33:48.536Z,100435.01
2019-03-18T08:36:19.130Z,100426.47
2019-03-18T08:38:49.851Z,100416.47
2019-03-18T08:41:21.587Z,100422.33
2019-03-18T08:43:52.082Z,100421.92
2019-03-18T08:46:22.670Z,100426.81
2019-03-18T08:48:55.932Z,100425.15
2019-03-18T08:51:25.906Z,100422.78
2019-03-18T08:53:57.024Z,100415.89
2019-03-18T08:56:29.690Z,100412.80
2019-03-18T08:58:59.798Z,100419.00
2019-03-18T09:01:30.482Z,100410.06
2019-03-18T09:04:01.719Z,100402.05
2019-03-18T09:06:32.222Z,100419.55
2019-03-18T09:09:02.804Z,100442.52
2019-03-18T09:11:33.482Z,100449.50
2019-03-18T09:14:04.075Z,100443.66
2019-03-18T09:16:35.851Z,100452.57
2019-03-18T09:19:08.879Z,100455.16
2019-03-18T09:21:39.377Z,100461.80
2019-03-18T09:24:10.242Z,100449.97
2019-03-18T09:26:41.407Z,100458.20
2019-03-18T09:29:12.215Z,100459.55
2019-03-18T09:31:45.229Z,100485.12
2019-03-18T09:34:15.937Z,100461.80
2019-03-18T09:36:46.510Z,100463.53
2019-03-18T09:39:17.171Z,100463.12
2019-03-18T09:41:47.771Z,100457.78
2019-03-18T09:44:18.276Z,100454.97
2019-03-18T09:46:49.697Z,100450.83
2019-03-18T09:49:22.010Z,100476.52
2019-03-18T09:51:52.460Z,100472.03
2019-03-18T09:54:23.202Z,100470.49
2019-03-18T09:56:53.918Z,100471.97
2019-03-18T09:59:24.924Z,100473.41
2019-03-18T10:01:55.251Z,100469.73
2019-03-18T10:04:25.595Z,100470.49
2019-03-18T10:06:57.390Z,100474.05
2019-03-18T10:09:27.974Z,100490.88
2019-03-18T10:11:58.853Z,100491.64
2019-03-18T10:14:29.451Z,100468.47
2019-03-18T10:17:09.150Z,100473.80
2019-03-18T10:19:33.755Z,100444.65
2019-03-18T10:22:04.907Z,100494.48
2019-03-18T10:24:35.690Z,100483.49
2019-03-18T10:27:06.429Z,100485.88
2019-03-18T10:29:37.143Z,100483.26
2019-03-18T10:32:07.520Z,100496.45
2019-03-18T10:34:38.033Z,100488.11
2019-03-18T10:37:08.933Z,100505.13
2019-03-18T10:39:39.482Z,100503.53
2019-03-18T10:42:09.967Z,100521.34
2019-03-18T10:44:40.861Z,100523.09
2019-03-18T10:47:11.205Z,100522.76
2019-03-18T10:49:46.418Z,100526.81
2019-03-18T10:52:14.483Z,100535.50
2019-03-18T10:54:45.165Z,100544.08
2019-03-18T10:57:15.605Z,100527.31
2019-03-18T10:59:46.228Z,100520.73
2019-03-18T11:02:16.835Z,100523.72
2019-03-18T11:04:47.519Z,100508.35
2019-03-18T11:07:17.875Z,100507.78
2019-03-18T11:09:48.408Z,100540.55
2019-03-18T11:12:19.105Z,100536.15
2019-03-18T11:14:49.583Z,100535.03
2019-03-18T11:17:19.990Z,100522.59
2019-03-18T11:19:58.417Z,100539.92
2019-03-18T11:22:22.905Z,100524.27
2019-03-18T11:24:53.388Z,100512.39
2019-03-18T11:27:24.058Z,100526.66
2019-03-18T11:29:54.591Z,100513.88
2019-03-18T11:32:25.338Z,100528.87
2019-03-18T11:34:56.051Z,100521.81
2019-03-18T11:37:26.652Z,100520.52
2019-03-18T11:39:57.352Z,100519.17
2019-03-18T11:42:28.476Z,100527.47
2019-03-18T11:44:59.192Z,100521.33
2019-03-18T11:47:31.295Z,100525.94
2019-03-18T11:50:10.961Z,100522.45
2019-03-18T11:52:34.461Z,100505.83
2019-03-18T11:55:10.090Z,100516.33
2019-03-18T11:57:42.082Z,100536.86
2019-03-18T12:00:14.958Z,100528.94
2019-03-18T12:02:45.676Z,100519.59
2019-03-18T12:05:27.634Z,100521.38
2019-03-18T12:07:58.445Z,100530.25
2019-03-18T12:10:28.960Z,100523.34
2019-03-18T12:12:59.793Z,100541.83
2019-03-18T12:15:31.271Z,100530.59
2019-03-18T12:18:02.136Z,100510.28
2019-03-18T12:20:33.258Z,100534.77
2019-03-18T12:23:04.108Z,100532.53
2019-03-18T12:25:34.629Z,100522.03
2019-03-18T12:28:05.649Z,100525.61
2019-03-18T12:30:36.141Z,100525.17
2019-03-18T12:33:06.910Z,100510.57
2019-03-18T12:35:37.524Z,100538.56
2019-03-18T12:38:08.005Z,100539.20
2019-03-18T12:40:38.452Z,100541.97
2019-03-18T12:43:09.012Z,100536.70
2019-03-18T12:45:39.459Z,100547.86
2019-03-18T12:48:10.021Z,100540.34
2019-03-18T12:50:55.133Z,100532.81
2019-03-18T12:53:13.448Z,100544.88
2019-03-18T12:55:44.177Z,100545.13
2019-03-18T12:58:14.752Z,100539.84
2019-03-18T13:00:45.647Z,100532.58
2019-03-18T13:03:16.400Z,100536.48
2019-03-18T13:05:46.922Z,100543.86
2019-03-18T13:08:17.478Z,100544.38
2019-03-18T13:10:47.993Z,100533.81
2019-03-18T13:13:19.091Z,100533.25
2019-03-18T13:15:50.116Z,100535.30
2019-03-18T13:18:20.528Z,100548.34
2019-03-18T13:20:51.013Z,100550.36
2019-03-18T13:23:21.703Z,100545.43
2019-03-18T13:25:52.350Z,100551.91
2019-03-18T13:28:22.854Z,100552.11
2019-03-18T13:30:53.400Z,100565.75
2019-03-18T13:33:24.791Z,100561.00
2019-03-18T13:35:55.193Z,100568.68
2019-03-18T13:38:27.190Z,100569.03
2019-03-18T13:40:57.843Z,100561.83
2019-03-18T13:43:28.515Z,100569.35
2019-03-18T13:45:58.856Z,100571.79
2019-03-18T13:48:29.339Z,100563.07
2019-03-18T13:50:59.842Z,100556.03
2019-03-18T13:53:30.276Z,100565.31
2019-03-18T13:56:00.926Z,100570.68
2019-03-18T13:58:31.749Z,100574.77
2019-03-18T14:01:02.389Z,100560.88
2019-03-18T14:03:32.741Z,100574.14
2019-03-18T14:06:03.424Z,100575.59
2019-03-18T14:08:33.867Z,100575.78
2019-03-18T14:11:04.342Z,100587.67
2019-03-18T14:13:35.011Z,100580.09
2019-03-18T14:16:05.800Z,100582.77
2019-03-18T14:18:36.243Z,100588.38
2019-03-18T14:21:06.721Z,100589.58
2019-03-18T14:23:37.335Z,100591.08
2019-03-18T14:26:08.001Z,100587.52
2019-03-18T14:28:39.582Z,100574.42
2019-03-18T14:31:10.109Z,100579.40
2019-03-18T14:33:41.679Z,100577.53
2019-03-18T14:36:12.417Z,100592.13
2019-03-18T14:38:42.832Z,100592.95
2019-03-18T14:41:13.451Z,100585.97
2019-03-18T14:43:46.474Z,100562.75
2019-03-18T14:46:16.041Z,100587.30
2019-03-18T14:48:46.827Z,100554.28
2019-03-18T14:51:17.551Z,100575.14
2019-03-18T14:53:48.642Z,100575.57
2019-03-18T14:56:21.440Z,100575.60
2019-03-18T14:58:51.936Z,100583.63
2019-03-18T15:01:23.997Z,100549.28
2019-03-18T15:03:55.080Z,100579.81
2019-03-18T15:06:27.406Z,100585.84
2019-03-18T15:08:57.835Z,100582.83
2019-03-18T15:11:28.635Z,100570.29
2019-03-18T15:14:00.159Z,100581.19
2019-03-18T15:16:31.242Z,100577.56
2019-03-18T15:19:01.983Z,100568.70
2019-03-18T15:21:32.591Z,100571.48
2019-03-18T15:24:03.486Z,100577.98
2019-03-18T15:26:34.239Z,100568.41
2019-03-18T15:29:06.498Z,100570.94
2019-03-18T15:31:37.226Z,100567.01
2019-03-18T15:34:07.810Z,100565.67
2019-03-18T15:36:39.547Z,100590.84
2019-03-18T15:39:10.661Z,100578.16
2019-03-18T15:41:41.074Z,100589.36
2019-03-18T15:44:11.475Z,100594.98
2019-03-18T15:46:42.959Z,100608.72
2019-03-18T15:49:13.390Z,100593.17
2019-03-18T15:51:43.883Z,100585.67
2019-03-18T15:54:14.326Z,100590.61
2019-03-18T15:56:46.114Z,100603.95
2019-03-18T15:59:16.614Z,100603.64
2019-03-18T16:01:47.169Z,100584.89
2019-03-18T16:04:17.961Z,100603.98
2019-03-18T16:06:48.302Z,100607.03
2019-03-18T16:09:18.731Z,100608.39
2019-03-18T16:11:50.196Z,100619.59
2019-03-18T16:14:21.028Z,100614.88
2019-03-18T16:17:01.400Z,100617.56
2019-03-18T16:19:23.859Z,100626.05
2019-03-18T16:21:57.941Z,100625.05
2019-03-18T16:24:28.847Z,100617.74
2019-03-18T16:26:59.663Z,100626.80
2019-03-18T16:29:30.810Z,100643.03
2019-03-18T16:32:10.767Z,100646.28
2019-03-18T16:34:36.092Z,100641.27
2019-03-18T16:37:06.596Z,100644.63
2019-03-18T16:39:40.050Z,100647.49
2019-03-18T16:42:10.751Z,100650.16
2019-03-18T16:44:41.246Z,100646.78
2019-03-18T16:47:12.050Z,100648.91
2019-03-18T16:49:42.388Z,100658.28
2019-03-18T16:52:13.859Z,100667.53
2019-03-18T16:54:45.065Z,100671.97
2019-03-18T16:57:17.032Z,100676.48
2019-03-18T16:59:47.659Z,100686.69
2019-03-18T17:02:20.634Z,100685.09
2019-03-18T17:04:51.276Z,100690.52
2019-03-18T17:07:24.769Z,100686.78
2019-03-18T17:09:56.726Z,100682.18
2019-03-18T17:12:29.963Z,100687.70
2019-03-18T17:15:00.430Z,100690.60
2019-03-18T17:17:31.249Z,100695.26
2019-03-18T17:20:01.678Z,100691.37
2019-03-18T17:22:32.196Z,100700.11
2019-03-18T17:25:03.010Z,100701.54
2019-03-18T17:27:34.427Z,100703.95
2019-03-18T17:30:08.462Z,100705.04
2019-03-18T17:32:40.172Z,100718.22
2019-03-18T17:35:10.659Z,100726.89
2019-03-18T17:37:41.283Z,100729.84
2019-03-18T17:40:19.393Z,100738.04
2019-03-18T17:42:49.829Z,100740.45
2019-03-18T17:45:20.367Z,100734.97
2019-03-18T17:47:50.938Z,100739.00
2019-03-18T17:50:25.083Z,100748.70
2019-03-18T17:53:03.026Z,100755.39
2019-03-18T17:55:31.018Z,100762.98
2019-03-18T17:58:01.539Z,100756.95
2019-03-18T18:00:36.400Z,100763.66
2019-03-18T18:03:06.828Z,100761.91
2019-03-18T18:05:38.737Z,100764.73
2019-03-18T18:08:09.369Z,100767.56
2019-03-18T18:10:42.058Z,100766.36
2019-03-18T18:13:12.562Z,100766.95
2019-03-18T18:15:43.226Z,100766.66
2019-03-18T18:18:15.029Z,100770.17
2019-03-18T18:20:46.127Z,100759.55
2019-03-18T18:23:18.046Z,100762.45
2019-03-18T18:25:48.798Z,100757.19
2019-03-18T18:28:19.437Z,100772.03
2019-03-18T18:30:50.070Z,100777.23
2019-03-18T18:33:22.167Z,100787.59
2019-03-18T18:35:52.553Z,100771.17
2019-03-18T18:38:24.293Z,100777.19
2019-03-18T18:40:56.799Z,100786.93
2019-03-18T18:43:27.203Z,100773.36
2019-03-18T18:45:57.823Z,100787.28
2019-03-18T18:48:28.670Z,100788.45
2019-03-18T18:51:00.761Z,100772.89
2019-03-18T18:53:30.958Z,100785.69
2019-03-18T18:56:01.443Z,100800.31
2019-03-18T18:58:32.060Z,100792.16
2019-03-18T19:01:02.703Z,100799.18
2019-03-18T19:03:33.176Z,100799.64
2019-03-18T19:06:03.506Z,100803.70
2019-03-18T19:08:34.244Z,100804.78
2019-03-18T19:11:04.748Z,100817.38
2019-03-18T19:13:35.435Z,100820.06
2019-03-18T19:16:05.892Z,100807.53
2019-03-18T19:18:38.011Z,100823.32
2019-03-18T19:21:10.007Z,100813.73
2019-03-18T19:23:40.783Z,100819.16
2019-03-18T19:26:11.567Z,100811.39
2019-03-18T19:28:43.349Z,100801.42
2019-03-18T19:31:13.804Z,100805.55
2019-03-18T19:33:44.670Z,100804.11
2019-03-18T19:36:17.299Z,100831.91
2019-03-18T19:38:48.866Z,100825.17
2019-03-18T19:41:21.558Z,100837.61
2019-03-18T19:43:52.406Z,100839.76
2019-03-18T19:46:25.024Z,100846.70
2019-03-18T19:48:55.572Z,100850.66
2019-03-18T19:51:27.853Z,100860.66
2019-03-18T19:53:58.489Z,100858.08
2019-03-18T19:56:29.895Z,100878.95
2019-03-18T19:59:00.321Z,100881.91
2019-03-18T20:01:31.431Z,100875.72
2019-03-18T20:04:02.049Z,100882.34
2019-03-18T20:06:32.678Z,100891.62
2019-03-18T20:09:04.453Z,100876.65
2019-03-18T20:11:35.006Z,100901.22
2019-03-18T20:14:06.445Z,100893.59
2019-03-18T20:16:39.838Z,100894.89
2019-03-18T20:19:10.423Z,100906.98
2019-03-18T20:21:40.826Z,100917.76
2019-03-18T20:24:11.660Z,100914.21
2019-03-18T20:26:42.295Z,100931.37
2019-03-18T20:29:13.058Z,100924.71
2019-03-18T20:31:45.838Z,100920.73
2019-03-18T20:34:17.928Z,100929.12
2019-03-18T20:36:48.416Z,100934.02
2019-03-18T20:39:19.077Z,100935.41
2019-03-18T20:41:49.688Z,100938.63
2019-03-18T20:44:20.154Z,100942.66
2019-03-18T20:46:51.238Z,100934.32
2019-03-18T20:49:21.860Z,100940.05
2019-03-18T20:51:54.070Z,100940.91
2019-03-18T20:54:24.751Z,100935.55
2019-03-18T20:56:55.761Z,100942.20
2019-03-18T20:59:27.702Z,100945.81
2019-03-18T21:01:58.279Z,100947.66
2019-03-18T21:04:30.123Z,100961.31
2019-03-18T21:07:00.671Z,100957.40
2019-03-18T21:09:31.243Z,100968.33
2019-03-18T21:12:01.832Z,100962.70
2019-03-18T21:14:32.883Z,100964.21
2019-03-18T21:17:03.247Z,100968.44
2019-03-18T21:19:33.690Z,100977.49
2019-03-18T21:22:04.038Z,100972.75
2019-03-18T21:24:36.171Z,100975.64
2019-03-18T21:27:08.077Z,100979.84
2019-03-18T21:29:38.516Z,100982.98
2019-03-18T21:32:08.898Z,100978.78
2019-03-18T21:34:39.468Z,100982.46
2019-03-18T21:37:10.078Z,100982.72
2019-03-18T21:39:40.461Z,100980.64
2019-03-18T21:42:12.306Z,100983.80
2019-03-18T21:44:44.785Z,100986.53
2019-03-18T21:47:15.963Z,100989.77
2019-03-18T21:49:46.642Z,100990.41
2019-03-18T21:52:21.806Z,100985.80
2019-03-18T21:54:52.726Z,100995.16
2019-03-18T21:57:23.561Z,100991.19
2019-03-18T21:59:54.323Z,100990.95
2019-03-18T22:02:24.801Z,100998.32
2019-03-18T22:04:55.357Z,101000.10
2019-03-18T22:07:26.249Z,100997.23
2019-03-18T22:09:56.693Z,101009.23
2019-03-18T22:12:27.208Z,101008.92
2019-03-18T22:14:59.206Z,101009.46
2019-03-18T22:17:29.666Z,101014.22
2019-03-18T22:20:00.357Z,101021.23
2019-03-18T22:22:31.073Z,101011.31
2019-03-18T22:25:03.630Z,101018.84
2019-03-18T22:27:34.974Z,101021.59
2019-03-18T22:30:07.964Z,101028.30
2019-03-18T22:32:38.557Z,101035.43
2019-03-18T22:35:09.355Z,101035.98
2019-03-18T22:37:40.002Z,101039.95
2019-03-18T22:40:11.763Z,101038.88
2019-03-18T22:42:42.346Z,101037.72
2019-03-18T22:45:13.825Z,101044.07
2019-03-18T22:47:44.536Z,101039.91
2019-03-18T22:50:16.992Z,101041.98
2019-03-18T22:52:47.611Z,101047.53
2019-03-18T22:55:18.024Z,101054.02
2019-03-18T22:57:48.521Z,101050.00
2019-03-18T23:00:21.510Z,101058.34
2019-03-18T23:02:53.589Z,101060.50
2019-03-18T23:05:24.274Z,101063.16
2019-03-18T23:07:54.897Z,101054.48
2019-03-18T23:10:25.376Z,101057.83
2019-03-18T23:12:56.300Z,101061.04
2019-03-18T23:15:26.660Z,101058.06
2019-03-18T23:17:57.062Z,101048.54
2019-03-18T23:20:27.623Z,101049.05
2019-03-18T23:22:58.443Z,101060.58
2019-03-18T23:25:29.066Z,101066.03
2019-03-18T23:27:59.760Z,101075.99
2019-03-18T23:30:30.313Z,101085.81
2019-03-18T23:33:00.934Z,101089.51
2019-03-18T23:35:31.356Z,101093.63
2019-03-18T23:38:01.826Z,101100.34
2019-03-18T23:40:32.386Z,101104.48
2019-03-18T23:43:03.096Z,101106.34
2019-03-18T23:45:33.594Z,101106.08
2019-03-18T23:48:04.033Z,101112.00
2019-03-18T23:50:34.791Z,101110.77
2019-03-18T23:53:05.478Z,101107.41
2019-03-18T23:55:36.103Z,101103.94
2019-03-18T23:58:06.699Z,101107.88
